CMA CGM Brazil — 9V3051 — position and weather

sailwx.info

Track history (hours):
 
Tides and Currents Weather Stations Pressure Air Temp Water Temp Dewpoint Dewpoint Depression Visibility Wind Speed Wind Dir Waves Ship Positions

CMA CGM Brazil

Last reported at 2018-Jun-22 22:30 UTC. Time now 2018-Jun-22 22:48 UTC.
Position N 50°55' E 001°26'.

Length 189 m; draft 8.8 m.

Type: Ship (hazmat cat A). MMSI: 565376000.

Date/timePositionNaut miles runAvg speedWind from/ knotsBaromVisibWave heightAir tempDewpointWater temp
2018-Jun-22 22:30N 50°55' E 001°26'611.4
2018-Jun-22 22:00N 50°50' E 001°24'611.2
2018-Jun-22 21:28N 50°44' E 001°22'711.1
2018-Jun-22 20:49N 50°39' E 001°14'411.1
2018-Jun-22 20:30N 50°37' E 001°10'911.2
2018-Jun-22 19:44N 50°31' E 000°59'311.0
2018-Jun-22 19:26N 50°30' E 000°54'511.0
2018-Jun-22 19:00N 50°29' E 000°47'510.9
2018-Jun-22 18:31N 50°28' E 000°39'611.0
2018-Jun-22 18:01N 50°26' E 000°30'611.1
2018-Jun-22 17:31N 50°24' E 000°22'611.0
2018-Jun-22 17:00N 50°23' E 000°14'611.5
2018-Jun-22 16:30N 50°22' E 000°05'612.5
2018-Jun-22 16:01N 50°20' W 000°05'611.7
2018-Jun-22 15:30N 50°18' W 000°13'611.3
2018-Jun-22 15:00N 50°17' W 000°22'611.5
2018-Jun-22 14:31N 50°15' W 000°31'611.4
2018-Jun-22 14:01N 50°14' W 000°39'611.6
2018-Jun-22 13:31N 50°12' W 000°48'611.5
2018-Jun-22 13:00N 50°11' W 000°57'611.7
2018-Jun-22 12:31N 50°09' W 001°05'611.6
2018-Jun-22 12:00N 50°08' W 001°14'611.4
2018-Jun-22 11:29N 50°07' W 001°23'611.6
2018-Jun-22 11:00N 50°05' W 001°32'711.4
2018-Jun-22 10:26N 50°04' W 001°42'611.5
2018-Jun-22 09:55N 50°01' W 001°50'1110.9
2018-Jun-22 08:54N 49°58' W 002°06'2411.1
2018-Jun-22 06:42N 49°52' W 002°43'211.1
2018-Jun-22 06:30N 49°51' W 002°46'611.1
2018-Jun-22 06:00N 49°49' W 002°54'611.1
2018-Jun-22 05:27N 49°46' W 003°03'511.3
2018-Jun-22 04:59N 49°44' W 003°10'511.3
2018-Jun-22 04:30N 49°41' W 003°17'611.2
2018-Jun-22 04:00N 49°39' W 003°25'611.3
2018-Jun-22 03:30N 49°36' W 003°32'1011.3
2018-Jun-22 02:36N 49°31' W 003°46'111.1
2018-Jun-22 02:30N 49°30' W 003°48'611.1
2018-Jun-22 01:56N 49°27' W 003°56'2411.3
2018-Jun-21 23:48N 49°15' W 004°28'3011.3
2018-Jun-21 21:10N 49°00' W 005°07'211.0
2018-Jun-21 20:59N 48°59' W 005°10'511.1
2018-Jun-21 20:30N 48°56' W 005°16'611.2
2018-Jun-21 20:00N 48°53' W 005°24'511.1
2018-Jun-21 19:30N 48°50' W 005°30'611.2
2018-Jun-21 19:00N 48°46' W 005°37'911.9
2018-Jun-21 18:17N 48°39' W 005°44'4312.3
2018-Jun-21 14:48N 48°01' W 006°13'2512.7
2018-Jun-21 12:48N 47°38' W 006°31'1313.5
2018-Jun-21 11:48N 47°27' W 006°40'47615.4
2018-Jun-20 04:55N 39°50' W 009°49'818.8
2018-Jun-20 04:29N 39°42' W 009°50'918.5
2018-Jun-20 04:00N 39°33' W 009°50'918.1
2018-Jun-20 03:30N 39°24' W 009°50'918.1
2018-Jun-20 03:00N 39°15' W 009°50'918.1
2018-Jun-20 02:30N 39°06' W 009°50'917.4
2018-Jun-20 02:00N 38°57' W 009°52'917.7
2018-Jun-20 01:30N 38°49' W 009°52'917.9
2018-Jun-20 01:00N 38°40' W 009°49'917.5
2018-Jun-20 00:30N 38°31' W 009°47'917.4
2018-Jun-20 00:01N 38°23' W 009°45'917.5
2018-Jun-19 23:31N 38°14' W 009°43'917.6
2018-Jun-19 23:00N 38°06' W 009°40'917.6
2018-Jun-19 22:30N 37°57' W 009°38'1017.6
2018-Jun-19 21:57N 37°47' W 009°36'817.9
2018-Jun-19 21:30N 37°40' W 009°33'3518.2
2018-Jun-19 19:36N 37°06' W 009°22'418.7
2018-Jun-19 19:23N 37°02' W 009°21'718.6
2018-Jun-19 18:59N 36°55' W 009°18'1218.2
2018-Jun-19 18:20N 36°46' W 009°09'617.9
2018-Jun-19 18:00N 36°44' W 009°02'917.9
2018-Jun-19 17:30N 36°41' W 008°51'1518.0
2018-Jun-19 16:39N 36°36' W 008°33'318.1
2018-Jun-19 16:30N 36°35' W 008°30'1118.4
2018-Jun-19 15:56N 36°32' W 008°18'818.2
2018-Jun-19 15:30N 36°29' W 008°09'1718.4
2018-Jun-19 14:35N 36°24' W 007°49'118.6
2018-Jun-19 14:30N 36°23' W 007°47'115 8.4
2018-Jun-19 00:47N 36°08' W 005°25'0 0.0
2018-Jun-19 00:29N 36°08' W 005°25'0 0.7
2018-Jun-19 00:01N 36°08' W 005°25'2 4.6
2018-Jun-18 23:28N 36°06' W 005°23'510.6
2018-Jun-18 23:00N 36°02' W 005°21'713.6
2018-Jun-18 22:30N 35°58' W 005°28'54817.6
2018-Jun-17 15:21N 29°09' W 012°43'1317.7
2018-Jun-17 14:36N 28°59' W 012°51'217.6
2018-Jun-17 14:30N 28°57' W 012°52'2017.4
2018-Jun-17 13:22N 28°41' W 013°05'717.7
2018-Jun-17 12:58N 28°35' W 013°09'817.7
2018-Jun-17 12:30N 28°28' W 013°15'917.6
2018-Jun-17 11:58N 28°20' W 013°21'917.5
2018-Jun-17 11:26N 28°13' W 013°28'817.7
2018-Jun-17 11:00N 28°07' W 013°33'1117.7
2018-Jun-17 10:23N 27°59' W 013°42'717.6
2018-Jun-17 10:00N 27°54' W 013°47'917.5
2018-Jun-17 09:30N 27°47' W 013°53'2017.4
2018-Jun-17 08:21N 27°32' W 014°08'2017.6
2018-Jun-17 07:12N 27°17' W 014°23'317.2
2018-Jun-17 07:00N 27°14' W 014°25'1117.2
2018-Jun-17 06:22N 27°05' W 014°32'2017.7
2018-Jun-17 05:15N 26°49' W 014°46'  
Track history (hours):
 
Tides and Currents Weather Stations Pressure Air Temp Water Temp Dewpoint Dewpoint Depression Visibility Wind Speed Wind Dir Waves Ship Positions

CMA CGM Brazil

Last reported at 2018-Jun-22 22:30 UTC. Time now 2018-Jun-22 22:48 UTC.
Position N 50°55' E 001°26'.

Length 189 m; draft 8.8 m.

Type: Ship (hazmat cat A). MMSI: 565376000.

Date/timePositionNaut miles runAvg speedWind from/ knotsBaromVisibWave heightAir tempDewpointWater temp
2018-Jun-22 22:30N 50°55' E 001°26'611.4
2018-Jun-22 22:00N 50°50' E 001°24'611.2
2018-Jun-22 21:28N 50°44' E 001°22'711.1
2018-Jun-22 20:49N 50°39' E 001°14'411.1
2018-Jun-22 20:30N 50°37' E 001°10'911.2
2018-Jun-22 19:44N 50°31' E 000°59'311.0
2018-Jun-22 19:26N 50°30' E 000°54'511.0
2018-Jun-22 19:00N 50°29' E 000°47'510.9
2018-Jun-22 18:31N 50°28' E 000°39'611.0
2018-Jun-22 18:01N 50°26' E 000°30'611.1
2018-Jun-22 17:31N 50°24' E 000°22'611.0
2018-Jun-22 17:00N 50°23' E 000°14'611.5
2018-Jun-22 16:30N 50°22' E 000°05'612.5
2018-Jun-22 16:01N 50°20' W 000°05'611.7
2018-Jun-22 15:30N 50°18' W 000°13'611.3
2018-Jun-22 15:00N 50°17' W 000°22'611.5
2018-Jun-22 14:31N 50°15' W 000°31'611.4
2018-Jun-22 14:01N 50°14' W 000°39'611.6
2018-Jun-22 13:31N 50°12' W 000°48'611.5
2018-Jun-22 13:00N 50°11' W 000°57'611.7
2018-Jun-22 12:31N 50°09' W 001°05'611.6
2018-Jun-22 12:00N 50°08' W 001°14'611.4
2018-Jun-22 11:29N 50°07' W 001°23'611.6
2018-Jun-22 11:00N 50°05' W 001°32'711.4
2018-Jun-22 10:26N 50°04' W 001°42'611.5
2018-Jun-22 09:55N 50°01' W 001°50'1110.9
2018-Jun-22 08:54N 49°58' W 002°06'2411.1
2018-Jun-22 06:42N 49°52' W 002°43'211.1
2018-Jun-22 06:30N 49°51' W 002°46'611.1
2018-Jun-22 06:00N 49°49' W 002°54'611.1
2018-Jun-22 05:27N 49°46' W 003°03'511.3
2018-Jun-22 04:59N 49°44' W 003°10'511.3
2018-Jun-22 04:30N 49°41' W 003°17'611.2
2018-Jun-22 04:00N 49°39' W 003°25'611.3
2018-Jun-22 03:30N 49°36' W 003°32'1011.3
2018-Jun-22 02:36N 49°31' W 003°46'111.1
2018-Jun-22 02:30N 49°30' W 003°48'611.1
2018-Jun-22 01:56N 49°27' W 003°56'2411.3
2018-Jun-21 23:48N 49°15' W 004°28'3011.3
2018-Jun-21 21:10N 49°00' W 005°07'211.0
2018-Jun-21 20:59N 48°59' W 005°10'511.1
2018-Jun-21 20:30N 48°56' W 005°16'611.2
2018-Jun-21 20:00N 48°53' W 005°24'511.1
2018-Jun-21 19:30N 48°50' W 005°30'611.2
2018-Jun-21 19:00N 48°46' W 005°37'911.9
2018-Jun-21 18:17N 48°39' W 005°44'4312.3
2018-Jun-21 14:48N 48°01' W 006°13'2512.7
2018-Jun-21 12:48N 47°38' W 006°31'1313.5
2018-Jun-21 11:48N 47°27' W 006°40'47615.4
2018-Jun-20 04:55N 39°50' W 009°49'818.8
2018-Jun-20 04:29N 39°42' W 009°50'918.5
2018-Jun-20 04:00N 39°33' W 009°50'918.1
2018-Jun-20 03:30N 39°24' W 009°50'918.1
2018-Jun-20 03:00N 39°15' W 009°50'918.1
2018-Jun-20 02:30N 39°06' W 009°50'917.4
2018-Jun-20 02:00N 38°57' W 009°52'917.7
2018-Jun-20 01:30N 38°49' W 009°52'917.9
2018-Jun-20 01:00N 38°40' W 009°49'917.5
2018-Jun-20 00:30N 38°31' W 009°47'917.4
2018-Jun-20 00:01N 38°23' W 009°45'917.5
2018-Jun-19 23:31N 38°14' W 009°43'917.6
2018-Jun-19 23:00N 38°06' W 009°40'917.6
2018-Jun-19 22:30N 37°57' W 009°38'1017.6
2018-Jun-19 21:57N 37°47' W 009°36'817.9
2018-Jun-19 21:30N 37°40' W 009°33'3518.2
2018-Jun-19 19:36N 37°06' W 009°22'418.7
2018-Jun-19 19:23N 37°02' W 009°21'718.6
2018-Jun-19 18:59N 36°55' W 009°18'1218.2
2018-Jun-19 18:20N 36°46' W 009°09'617.9
2018-Jun-19 18:00N 36°44' W 009°02'917.9
2018-Jun-19 17:30N 36°41' W 008°51'1518.0
2018-Jun-19 16:39N 36°36' W 008°33'318.1
2018-Jun-19 16:30N 36°35' W 008°30'1118.4
2018-Jun-19 15:56N 36°32' W 008°18'818.2
2018-Jun-19 15:30N 36°29' W 008°09'1718.4
2018-Jun-19 14:35N 36°24' W 007°49'118.6
2018-Jun-19 14:30N 36°23' W 007°47'115 8.4
2018-Jun-19 00:47N 36°08' W 005°25'0 0.0
2018-Jun-19 00:29N 36°08' W 005°25'0 0.7
2018-Jun-19 00:01N 36°08' W 005°25'2 4.6
2018-Jun-18 23:28N 36°06' W 005°23'510.6
2018-Jun-18 23:00N 36°02' W 005°21'713.6
2018-Jun-18 22:30N 35°58' W 005°28'54817.6
2018-Jun-17 15:21N 29°09' W 012°43'1317.7
2018-Jun-17 14:36N 28°59' W 012°51'217.6
2018-Jun-17 14:30N 28°57' W 012°52'2017.4
2018-Jun-17 13:22N 28°41' W 013°05'717.7
2018-Jun-17 12:58N 28°35' W 013°09'817.7
2018-Jun-17 12:30N 28°28' W 013°15'917.6
2018-Jun-17 11:58N 28°20' W 013°21'917.5
2018-Jun-17 11:26N 28°13' W 013°28'817.7
2018-Jun-17 11:00N 28°07' W 013°33'1117.7
2018-Jun-17 10:23N 27°59' W 013°42'717.6
2018-Jun-17 10:00N 27°54' W 013°47'917.5
2018-Jun-17 09:30N 27°47' W 013°53'2017.4
2018-Jun-17 08:21N 27°32' W 014°08'2017.6
2018-Jun-17 07:12N 27°17' W 014°23'317.2
2018-Jun-17 07:00N 27°14' W 014°25'1117.2
2018-Jun-17 06:22N 27°05' W 014°32'2017.7
2018-Jun-17 05:15N 26°49' W 014°46'  

Dump ship's entire track history